This is the latest recevied weather packets stored in our database for station/object N1TKS. If no packets are shown the sender has not sent any weather packets the latest 10 day(s).
| Time | Temp. | Humidity | Pressure | Rain* | Wind** | Luminosity | Snow |
|---|---|---|---|---|---|---|---|
| 1778242313 | 11.11° C | 73% | 1013.1 hPa | 0 mm | - | - | - |
| 1778242015 | 10.56° C | 72% | 1013 hPa | 0 mm | - | - | - |
| 1778241929 | 10.56° C | 73% | 1012.9 hPa | 0 mm | - | - | - |
| 1778241800 | 10° C | 81% | 1012.7 hPa | 0 mm | - | - | - |
| 1778241715 | 10.56° C | 73% | 1012.9 hPa | 0 mm | - | - | - |
| 1778241560 | 10.56° C | 74% | 1012.9 hPa | 0 mm | - | - | - |
| 1778241414 | 10.56° C | 74% | 1012.9 hPa | 0 mm | - | - | - |
| 1778241113 | 10.56° C | 76% | 1012.8 hPa | 0 mm | - | - | - |
| 1778240819 | 10° C | 78% | 1012.8 hPa | 0 mm | - | - | - |
| 1778240663 | 10° C | 78% | 1012.7 hPa | 0 mm | - | - | - |
| 1778240564 | 10° C | 78% | 1012.7 hPa | 0 mm | - | - | - |
| 1778240517 | 10° C | 78% | 1012.7 hPa | 0 mm | - | - | - |
| 1778240213 | 10° C | 79% | 1012.8 hPa | 0 mm | - | - | - |
| 1778240097 | 10° C | 81% | 1012.7 hPa | 0 mm | - | - | - |
| 1778239914 | 10° C | 81% | 1012.7 hPa | 0 mm | - | - | - |
| 1778239890 | 8.89° C | 83% | 1012.7 hPa | 0 mm | - | - | - |
| 1778239620 | 9.44° C | 82% | 1012.7 hPa | 0 mm | - | - | - |
| 1778239506 | 9.44° C | 82% | 1012.7 hPa | 0 mm | - | - | - |
| 1778239315 | 9.44° C | 82% | 1012.7 hPa | 0 mm | - | - | - |
| 1778239144 | 8.89° C | 83% | 1012.7 hPa | 0 mm | - | - | - |
| 1778239065 | 8.89° C | 83% | 1012.7 hPa | 0 mm | - | - | - |
| 1778239014 | 8.89° C | 83% | 1012.7 hPa | 0 mm | - | - | - |
| 1778238881 | 8.89° C | 84% | 1012.7 hPa | 0 mm | - | - | - |
| 1778238715 | 8.89° C | 84% | 1012.7 hPa | 0 mm | - | - | - |
| 1778238550 | 8.89° C | 85% | 1012.7 hPa | 0 mm | - | - | - |
* Rain latest hour (hover to see other rain measurements)
** Current wind speed in m/s (hover to see current wind gust speed)